Time;durP1;ratioP1;P1;durP2;ratioP2;P2;SDS_P1;SDS_P2;PMS_P1;PMS_P2;Temp;Humidity;BMP_temperature;BMP_pressure;BME280_temperature;BME280_humidity;BME280_pressure;Samples;Min_cycle;Max_cycle;Signal;HPM_P1;HPM_P2
2021/11/25 00:01:16;;;;;;;;;;;;;;;6.89;99.99;100426.00;1756011;80;21817;-85
2021/11/25 00:03:42;;;;;;;;;;;;;;;6.90;99.65;100419.77;1762640;80;20230;-84
2021/11/25 00:06:09;;;;;;;;;;;;;;;6.93;99.56;100422.14;1754656;80;20174;-84
2021/11/25 00:08:35;;;;;;;;;;;;;;;6.88;99.67;100419.90;1773589;80;20257;-84
2021/11/25 00:11:01;;;;;;;;;;;;;;;6.88;99.72;100417.77;1757968;80;20267;-83
2021/11/25 00:13:26;;;;;;;;;;;;;;;6.86;99.81;100413.13;1763934;80;21041;-84
2021/11/25 00:15:52;;;;;;;;;;;;;;;6.87;99.99;100414.77;1739614;80;20535;-82
2021/11/25 00:18:19;;;;;;;;;;;;;;;6.87;99.98;100412.15;1765628;80;20129;-83
2021/11/25 00:20:47;;;;;;;;;;;;;;;6.83;99.98;100407.15;1762995;80;20144;-83
2021/11/25 00:23:13;;;;;;;;;;;;;;;6.74;100.00;100417.58;1766844;80;20145;-84
2021/11/25 00:25:38;;;;;;;;;;;;;;;6.73;100.00;100408.88;1766502;80;21096;-83
2021/11/25 00:28:04;;;;;;;;;;;;;;;7.09;99.61;100401.55;1760651;80;20755;-83
2021/11/25 00:30:33;;;;;;;;;;;;;;;7.30;98.37;100398.09;1760969;80;20282;-83
2021/11/25 00:32:59;;;;;;;;;;;;;;;7.38;97.75;100395.67;1762302;80;20113;-83
2021/11/25 00:35:26;;;;;;;;;;;;;;;7.38;97.33;100394.36;1763716;80;20349;-82
2021/11/25 00:37:54;;;;;;;;;;;;;;;7.41;97.34;100386.22;1760846;80;21044;-83
2021/11/25 00:40:21;;;;;;;;;;;;;;;7.46;97.04;100385.34;1752527;80;20199;-83
2021/11/25 00:42:46;;;;;;;;;;;;;;;7.55;96.84;100391.12;1755374;80;20193;-84
2021/11/25 00:45:12;;;;;;;;;;;;;;;7.57;96.65;100388.83;1761666;80;20634;-85
2021/11/25 00:47:38;;;;;;;;;;;;;;;7.62;95.83;100386.66;1759557;80;20502;-84
2021/11/25 00:50:05;;;;;;;;;;;;;;;7.67;95.58;100387.91;1763829;80;21155;-85
2021/11/25 00:52:31;;;;;;;;;;;;;;;7.72;95.47;100388.83;1768746;80;20248;-85
2021/11/25 00:54:58;;;;;;;;;;;;;;;7.68;95.37;100384.83;1765236;80;20451;-84
2021/11/25 00:57:23;;;;;;;;;;;;;;;7.59;95.20;100381.66;1758436;80;20249;-85
2021/11/25 00:59:51;;;;;;;;;;;;;;;7.54;94.76;100384.20;1756935;80;20505;-84
2021/11/25 01:02:16;;;;;;;;;;;;;;;7.48;95.42;100386.03;1760738;80;20143;-85
2021/11/25 01:04:44;;;;;;;;;;;;;;;7.46;95.27;100382.71;1753533;80;20157;-86
2021/11/25 01:07:12;;;;;;;;;;;;;;;7.46;95.32;100377.45;1770367;80;20143;-85
2021/11/25 01:09:39;;;;;;;;;;;;;;;7.42;95.51;100372.09;1758667;80;20266;-84
2021/11/25 01:12:06;;;;;;;;;;;;;;;7.47;95.46;100373.88;1750511;80;20202;-84
2021/11/25 01:14:34;;;;;;;;;;;;;;;7.49;95.30;100368.48;1746404;80;21753;-84
2021/11/25 01:17:00;;;;;;;;;;;;;;;7.44;95.23;100361.00;1758036;80;20151;-84
2021/11/25 01:19:25;;;;;;;;;;;;;;;7.37;95.65;100367.72;1754098;80;20267;-84
2021/11/25 01:21:51;;;;;;;;;;;;;;;7.37;95.66;100367.23;1757313;80;20804;-85
2021/11/25 01:24:17;;;;;;;;;;;;;;;7.36;95.76;100369.53;1748491;80;20224;-84
2021/11/25 01:26:42;;;;;;;;;;;;;;;7.41;95.65;100369.14;1755723;80;21167;-84
2021/11/25 01:29:08;;;;;;;;;;;;;;;7.47;95.46;100363.36;1762409;80;20174;-85
2021/11/25 01:31:34;;;;;;;;;;;;;;;7.41;95.24;100361.26;1756343;80;21202;-84
2021/11/25 01:34:01;;;;;;;;;;;;;;;7.45;95.15;100354.76;1756885;80;20207;-84
2021/11/25 01:36:27;;;;;;;;;;;;;;;7.41;95.39;100353.84;1759562;80;20241;-84
2021/11/25 01:38:53;;;;;;;;;;;;;;;7.39;95.23;100346.08;1760769;80;22403;-84
2021/11/25 01:41:20;;;;;;;;;;;;;;;7.28;95.33;100339.61;1754860;80;20165;-84
2021/11/25 01:43:46;;;;;;;;;;;;;;;7.32;95.68;100339.22;1757856;80;20132;-84
2021/11/25 01:46:14;;;;;;;;;;;;;;;7.36;95.83;100334.52;1764959;80;20521;-85
2021/11/25 01:48:42;;;;;;;;;;;;;;;7.17;95.30;100340.02;1757783;80;20489;-84
2021/11/25 01:51:07;;;;;;;;;;;;;;;7.10;95.77;100338.89;1755217;80;21945;-85
2021/11/25 01:53:34;;;;;;;;;;;;;;;7.07;96.13;100332.59;1749773;80;20244;-84
2021/11/25 01:56:00;;;;;;;;;;;;;;;7.11;96.25;100335.28;1751299;80;20153;-85
2021/11/25 01:58:28;;;;;;;;;;;;;;;7.07;96.25;100329.95;1759817;80;20143;-84
2021/11/25 02:00:55;;;;;;;;;;;;;;;6.71;98.03;100324.20;1731987;80;20223;-84
2021/11/25 02:03:21;;;;;;;;;;;;;;;6.82;97.99;100328.06;1735843;80;21820;-83
2021/11/25 02:05:47;;;;;;;;;;;;;;;6.80;97.37;100315.53;1758311;80;20190;-86
2021/11/25 02:08:12;;;;;;;;;;;;;;;6.76;96.88;100316.77;1768061;80;20222;-86
2021/11/25 02:10:41;;;;;;;;;;;;;;;6.80;97.15;100306.34;1736917;80;20327;-86
2021/11/25 02:13:06;;;;;;;;;;;;;;;6.57;97.35;100310.05;1765812;80;20185;-86
2021/11/25 02:15:35;;;;;;;;;;;;;;;6.65;97.30;100311.58;1761659;80;21083;-86
2021/11/25 02:18:05;;;;;;;;;;;;;;;6.64;97.33;100302.03;1765115;80;20133;-84
2021/11/25 02:20:44;;;;;;;;;;;;;;;6.63;97.32;100303.84;1767434;80;20119;-85
2021/11/25 02:23:12;;;;;;;;;;;;;;;6.57;97.70;100303.48;1763402;80;20223;-86
2021/11/25 02:25:37;;;;;;;;;;;;;;;6.71;97.81;100307.14;1761936;80;20165;-85
2021/11/25 02:28:03;;;;;;;;;;;;;;;6.62;97.25;100310.52;1760618;80;21019;-85
2021/11/25 02:30:29;;;;;;;;;;;;;;;6.50;97.40;100301.03;1764242;80;20205;-87
2021/11/25 02:32:55;;;;;;;;;;;;;;;6.40;97.41;100300.48;1763823;80;20176;-87
2021/11/25 02:35:25;;;;;;;;;;;;;;;6.31;97.94;100296.44;1775746;80;20179;-85
2021/11/25 02:37:51;;;;;;;;;;;;;;;6.39;98.16;100289.62;1739731;82;20699;-87
2021/11/25 02:40:33;;;;;;;;;;;;;;;6.19;98.18;100285.17;1743265;82;21159;-88
2021/11/25 02:43:00;;;;;;;;;;;;;;;6.32;98.05;100274.02;1778790;79;20142;-87
2021/11/25 02:45:28;;;;;;;;;;;;;;;6.27;97.83;100273.58;1733282;82;20110;-86
2021/11/25 02:47:53;;;;;;;;;;;;;;;6.19;98.13;100276.00;1750772;80;20180;-87
2021/11/25 02:50:22;;;;;;;;;;;;;;;6.23;98.15;100273.00;1750615;81;20150;-86
2021/11/25 02:52:47;;;;;;;;;;;;;;;6.23;98.00;100270.84;1750141;81;21007;-87
2021/11/25 02:55:16;;;;;;;;;;;;;;;6.20;97.99;100272.40;1745309;81;20212;-86
2021/11/25 02:57:42;;;;;;;;;;;;;;;6.34;97.87;100272.13;1744817;81;20152;-86
2021/11/25 03:00:26;;;;;;;;;;;;;;;6.58;96.61;100261.37;1749843;80;20213;-86
2021/11/25 03:02:57;;;;;;;;;;;;;;;6.67;96.23;100260.28;1749598;81;20494;-85
2021/11/25 03:05:24;;;;;;;;;;;;;;;6.31;97.19;100259.27;1748213;81;21352;-86
2021/11/25 03:07:50;;;;;;;;;;;;;;;6.31;97.70;100265.82;1746188;81;20169;-85
2021/11/25 03:10:16;;;;;;;;;;;;;;;6.28;97.77;100263.45;1746530;81;20122;-87
2021/11/25 03:12:41;;;;;;;;;;;;;;;6.24;98.01;100258.09;1744940;80;20193;-87
2021/11/25 03:15:08;;;;;;;;;;;;;;;6.42;97.25;100256.58;1735244;81;20272;-86
2021/11/25 03:17:40;;;;;;;;;;;;;;;6.34;96.43;100255.08;1734015;81;21920;-86
2021/11/25 03:20:08;;;;;;;;;;;;;;;6.15;96.70;100254.91;1733303;81;20146;-85
2021/11/25 03:22:34;;;;;;;;;;;;;;;6.16;97.41;100247.41;1735293;82;20115;-85
2021/11/25 03:25:00;;;;;;;;;;;;;;;6.16;97.49;100243.47;1713275;83;20484;-86
2021/11/25 03:27:25;;;;;;;;;;;;;;;6.04;97.71;100236.94;1717518;82;20128;-85
2021/11/25 03:29:51;;;;;;;;;;;;;;;6.01;97.72;100230.66;1710224;83;21808;-87
2021/11/25 03:32:16;;;;;;;;;;;;;;;6.16;97.65;100231.67;1739549;81;20156;-85
2021/11/25 03:34:42;;;;;;;;;;;;;;;6.13;97.31;100235.37;1741867;81;20150;-85
2021/11/25 03:37:08;;;;;;;;;;;;;;;6.23;96.75;100232.81;1706423;83;20136;-85
2021/11/25 03:39:34;;;;;;;;;;;;;;;6.07;97.21;100231.45;1707812;82;20183;-86
2021/11/25 03:42:00;;;;;;;;;;;;;;;6.07;97.54;100226.20;1715137;83;21268;-86
2021/11/25 03:44:29;;;;;;;;;;;;;;;6.03;98.05;100220.88;1745431;81;20464;-86
2021/11/25 03:46:54;;;;;;;;;;;;;;;6.05;97.44;100212.40;1707950;83;20749;-85
2021/11/25 03:49:21;;;;;;;;;;;;;;;6.04;97.47;100206.79;1726769;82;20143;-84
2021/11/25 03:51:50;;;;;;;;;;;;;;;6.24;96.33;100203.02;1728165;82;20234;-84
2021/11/25 03:54:15;;;;;;;;;;;;;;;6.15;96.06;100206.41;1726825;82;21202;-85
2021/11/25 03:56:41;;;;;;;;;;;;;;;6.13;96.54;100197.84;1729503;82;20151;-85
2021/11/25 03:59:06;;;;;;;;;;;;;;;6.14;96.65;100191.62;1724542;82;20495;-85
2021/11/25 04:01:32;;;;;;;;;;;;;;;6.14;96.63;100192.93;1727439;81;20160;-84
2021/11/25 04:03:58;;;;;;;;;;;;;;;6.15;96.54;100188.05;1730288;82;20851;-85
2021/11/25 04:06:23;;;;;;;;;;;;;;;6.20;96.05;100183.25;1729141;82;21157;-84
2021/11/25 04:08:49;;;;;;;;;;;;;;;6.31;96.11;100177.97;1726275;82;20787;-85
2021/11/25 04:11:14;;;;;;;;;;;;;;;6.15;95.42;100178.88;1727440;82;20241;-84
2021/11/25 04:13:42;;;;;;;;;;;;;;;6.04;96.94;100181.06;1753111;80;20471;-84
2021/11/25 04:16:08;;;;;;;;;;;;;;;5.96;95.94;100182.97;1773089;80;20173;-85
2021/11/25 04:18:33;;;;;;;;;;;;;;;6.04;96.02;100177.95;1717338;82;21123;-85
2021/11/25 04:21:02;;;;;;;;;;;;;;;5.96;95.77;100171.17;1748203;81;20126;-84
2021/11/25 04:23:27;;;;;;;;;;;;;;;5.86;96.31;100175.52;1746730;81;20519;-84
2021/11/25 04:25:55;;;;;;;;;;;;;;;5.77;96.30;100166.61;1757610;80;20179;-84
2021/11/25 04:28:22;;;;;;;;;;;;;;;5.82;96.88;100168.86;1766016;80;20128;-84
2021/11/25 04:35:28;;;;;;;;;;;;;;;6.01;96.11;100158.58;1750953;80;21085;-85
2021/11/25 04:36:07;;;;;;;;;;;;;;;6.14;94.16;100157.08;1769864;80;20167;-87
2021/11/25 04:38:33;;;;;;;;;;;;;;;6.15;93.90;100148.72;1762833;80;20180;-86
2021/11/25 04:41:02;;;;;;;;;;;;;;;6.15;93.78;100148.72;1759112;80;20189;-85
2021/11/25 04:43:28;;;;;;;;;;;;;;;6.24;93.42;100141.40;1758413;80;21793;-86
2021/11/25 04:45:54;;;;;;;;;;;;;;;6.29;93.22;100134.81;1755211;80;20192;-86
2021/11/25 04:48:22;;;;;;;;;;;;;;;6.29;92.68;100130.88;1766421;80;20277;-86
2021/11/25 04:50:47;;;;;;;;;;;;;;;6.10;92.12;100138.13;1763850;80;20161;-86
2021/11/25 04:53:13;;;;;;;;;;;;;;;6.11;92.34;100135.05;1761663;80;20110;-87
2021/11/25 04:55:40;;;;;;;;;;;;;;;6.13;92.30;100127.05;1758262;80;21170;-86
2021/11/25 04:58:05;;;;;;;;;;;;;;;6.16;91.93;100128.11;1757210;80;20165;-86
2021/11/25 05:00:31;;;;;;;;;;;;;;;6.15;91.85;100131.67;1757003;80;20779;-86
2021/11/25 05:02:57;;;;;;;;;;;;;;;6.07;91.20;100133.13;1734526;80;20184;-86
2021/11/25 05:05:22;;;;;;;;;;;;;;;6.03;91.03;100128.27;1766496;80;20197;-85
2021/11/25 05:07:48;;;;;;;;;;;;;;;5.86;91.31;100121.80;1758244;80;21076;-85
2021/11/25 05:10:14;;;;;;;;;;;;;;;5.83;91.83;100127.30;1757019;80;20214;-84
2021/11/25 05:12:39;;;;;;;;;;;;;;;5.58;93.21;100122.75;1753255;80;20621;-85
2021/11/25 05:15:06;;;;;;;;;;;;;;;5.52;93.56;100119.31;1761065;80;20116;-84
2021/11/25 05:17:32;;;;;;;;;;;;;;;5.45;94.18;100119.45;1755041;80;20246;-85
2021/11/25 05:19:57;;;;;;;;;;;;;;;5.48;94.23;100108.72;1752060;80;21235;-85
2021/11/25 05:22:23;;;;;;;;;;;;;;;5.46;94.05;100110.64;1753293;80;21205;-85
2021/11/25 05:24:49;;;;;;;;;;;;;;;5.39;94.40;100111.14;1755560;80;20159;-85
2021/11/25 05:27:16;;;;;;;;;;;;;;;5.34;94.74;100106.73;1753157;80;20153;-84
2021/11/25 05:29:42;;;;;;;;;;;;;;;5.29;94.49;100099.73;1763457;80;20147;-84
2021/11/25 05:32:08;;;;;;;;;;;;;;;5.34;94.62;100096.73;1760388;80;21349;-84
2021/11/25 05:34:34;;;;;;;;;;;;;;;5.37;94.65;100097.31;1757687;80;20307;-84
2021/11/25 05:37:01;;;;;;;;;;;;;;;5.38;93.87;100097.68;1731895;80;20158;-84
2021/11/25 05:39:31;;;;;;;;;;;;;;;5.34;93.91;100096.73;1759872;80;20517;-85
2021/11/25 05:41:57;;;;;;;;;;;;;;;5.44;92.90;100086.34;1749875;80;20324;-83
2021/11/25 05:44:23;;;;;;;;;;;;;;;5.55;92.68;100078.47;1761731;80;21012;-83
2021/11/25 05:46:48;;;;;;;;;;;;;;;5.54;92.19;100078.10;1760022;80;20193;-84
2021/11/25 05:49:14;;;;;;;;;;;;;;;5.55;91.77;100077.16;1762220;80;20198;-83
2021/11/25 05:51:40;;;;;;;;;;;;;;;5.53;91.41;100080.36;1753273;80;20116;-83
2021/11/25 05:54:06;;;;;;;;;;;;;;;5.50;91.60;100074.06;1754379;80;20199;-82
2021/11/25 05:56:33;;;;;;;;;;;;;;;5.44;91.15;100076.72;1757240;80;20632;-83
2021/11/25 05:58:59;;;;;;;;;;;;;;;5.47;90.83;100084.33;1754449;80;20147;-83
2021/11/25 06:01:25;;;;;;;;;;;;;;;5.45;90.42;100080.16;1753133;80;20230;-82
2021/11/25 06:03:56;;;;;;;;;;;;;;;5.28;89.81;100088.89;1726663;80;20184;-84
2021/11/25 06:06:22;;;;;;;;;;;;;;;5.24;89.91;100084.87;1753924;80;20227;-83
2021/11/25 06:08:52;;;;;;;;;;;;;;;5.26;89.97;100084.27;1745237;80;20424;-83
2021/11/25 06:11:18;;;;;;;;;;;;;;;5.18;89.82;100080.13;1750902;80;20150;-83
2021/11/25 06:13:44;;;;;;;;;;;;;;;5.16;89.99;100083.36;1762489;80;20185;-83
2021/11/25 06:16:09;;;;;;;;;;;;;;;5.13;89.98;100080.50;1728431;80;20648;-84
2021/11/25 06:18:38;;;;;;;;;;;;;;;5.16;89.93;100075.51;1762659;80;20255;-85
2021/11/25 06:21:04;;;;;;;;;;;;;;;5.18;89.74;100076.20;1763722;80;21686;-84
2021/11/25 06:23:29;;;;;;;;;;;;;;;5.15;89.63;100076.45;1758333;80;21162;-84
2021/11/25 06:25:55;;;;;;;;;;;;;;;5.18;89.48;100076.20;1762484;80;20476;-82
2021/11/25 06:28:20;;;;;;;;;;;;;;;5.17;89.33;100071.91;1761582;80;20177;-81
2021/11/25 06:30:46;;;;;;;;;;;;;;;5.15;89.36;100069.42;1758384;80;20542;-82
2021/11/25 06:33:12;;;;;;;;;;;;;;;5.15;89.31;100059.44;1754920;80;21140;-81
2021/11/25 06:35:38;;;;;;;;;;;;;;;5.14;89.35;100064.30;1759294;80;21292;-81
2021/11/25 06:38:04;;;;;;;;;;;;;;;5.03;89.09;100056.86;1760461;80;20500;-82
2021/11/25 06:40:31;;;;;;;;;;;;;;;5.03;89.24;100050.31;1765802;80;20479;-84
2021/11/25 06:42:58;;;;;;;;;;;;;;;5.07;89.37;100053.51;1755524;80;20134;-82
2021/11/25 06:45:23;;;;;;;;;;;;;;;5.08;89.16;100050.41;1761360;80;21902;-81
2021/11/25 06:47:49;;;;;;;;;;;;;;;5.10;89.42;100049.83;1761204;80;20262;-84
2021/11/25 06:50:16;;;;;;;;;;;;;;;5.15;89.43;100048.97;1763300;80;20197;-82
2021/11/25 06:52:41;;;;;;;;;;;;;;;5.17;89.42;100038.73;1763082;80;20124;-83
2021/11/25 06:55:08;;;;;;;;;;;;;;;5.20;89.16;100035.02;1757701;80;20218;-83
2021/11/25 06:57:34;;;;;;;;;;;;;;;5.22;89.35;100025.27;1763754;80;21756;-83
2021/11/25 07:00:00;;;;;;;;;;;;;;;5.26;89.31;100026.67;1762684;80;20174;-83
2021/11/25 07:02:25;;;;;;;;;;;;;;;5.24;89.17;100027.28;1759195;80;20268;-83
2021/11/25 07:04:51;;;;;;;;;;;;;;;5.28;89.21;100019.51;1752662;80;20140;-83
2021/11/25 07:07:17;;;;;;;;;;;;;;;5.27;89.06;100023.11;1755337;80;20152;-83
2021/11/25 07:09:42;;;;;;;;;;;;;;;5.32;88.78;100018.31;1749867;80;21007;-84
2021/11/25 07:12:08;;;;;;;;;;;;;;;5.35;88.54;100024.61;1756744;80;20152;-83
2021/11/25 07:14:33;;;;;;;;;;;;;;;5.38;88.36;100014.38;1761822;80;20177;-85
2021/11/25 07:16:59;;;;;;;;;;;;;;;5.41;88.32;100018.05;1756508;79;21017;-85
2021/11/25 07:19:25;;;;;;;;;;;;;;;5.42;88.07;100020.17;1761279;80;20135;-84
2021/11/25 07:21:52;;;;;;;;;;;;;;;5.38;87.95;100025.67;1758823;80;22333;-83
2021/11/25 07:24:18;;;;;;;;;;;;;;;5.38;87.80;100019.13;1755168;80;20565;-84
2021/11/25 07:26:43;;;;;;;;;;;;;;;5.38;87.85;100013.88;1758141;79;20134;-85
2021/11/25 07:29:09;;;;;;;;;;;;;;;5.19;87.92;100008.51;1757646;79;20195;-85
2021/11/25 07:31:35;;;;;;;;;;;;;;;5.22;88.17;100005.64;1762478;80;20182;-85
2021/11/25 07:34:02;;;;;;;;;;;;;;;5.22;88.08;100004.33;1763266;79;22453;-83
2021/11/25 07:36:28;;;;;;;;;;;;;;;5.13;88.32;100005.08;1760691;79;20649;-83
2021/11/25 07:38:55;;;;;;;;;;;;;;;5.11;88.46;99999.12;1755459;79;20147;-85
2021/11/25 07:41:21;;;;;;;;;;;;;;;5.11;88.29;99986.03;1757542;79;20962;-83
2021/11/25 07:43:47;;;;;;;;;;;;;;;5.28;86.88;99977.63;1759476;79;20129;-82
2021/11/25 07:46:12;;;;;;;;;;;;;;;5.30;86.65;99976.19;1762201;79;21846;-84
2021/11/25 07:48:38;;;;;;;;;;;;;;;5.36;86.05;99971.30;1756828;79;20519;-82
2021/11/25 07:51:03;;;;;;;;;;;;;;;5.42;85.93;99973.04;1750929;79;20152;-85
2021/11/25 07:53:29;;;;;;;;;;;;;;;5.34;85.66;99961.41;1764343;80;20132;-87
2021/11/25 07:55:55;;;;;;;;;;;;;;;5.40;85.67;99963.52;1758043;80;20191;-84
2021/11/25 07:58:22;;;;;;;;;;;;;;;5.43;85.67;99964.23;1759250;80;21146;-83
2021/11/25 08:00:48;;;;;;;;;;;;;;;5.37;85.52;99959.02;1760454;80;20193;-82
2021/11/25 08:03:14;;;;;;;;;;;;;;;5.40;85.27;99960.89;1772512;79;20111;-84
2021/11/25 08:05:39;;;;;;;;;;;;;;;5.43;85.28;99950.66;1764454;80;20885;-85
2021/11/25 08:08:06;;;;;;;;;;;;;;;5.37;85.19;99945.44;1741959;80;20242;-85
2021/11/25 08:10:31;;;;;;;;;;;;;;;5.40;84.88;99934.70;1738398;80;21181;-85
2021/11/25 08:13:03;;;;;;;;;;;;;;;5.28;84.86;99935.73;1744593;80;20221;-85
2021/11/25 08:15:27;;;;;;;;;;;;;;;5.25;84.98;99931.23;1728268;81;20162;-84
2021/11/25 08:17:53;;;;;;;;;;;;;;;5.26;85.07;99928.98;1731228;81;20162;-84
2021/11/25 08:20:20;;;;;;;;;;;;;;;5.31;85.00;99930.23;1725544;81;20261;-84
2021/11/25 08:22:46;;;;;;;;;;;;;;;5.36;84.73;99928.09;1760849;80;22054;-85
2021/11/25 08:25:11;;;;;;;;;;;;;;;5.14;85.50;99920.34;1762709;79;20125;-86
2021/11/25 08:27:37;;;;;;;;;;;;;;;5.08;85.33;99920.84;1755481;78;20202;-86
2021/11/25 08:30:06;;;;;;;;;;;;;;;5.02;85.69;99917.79;1757935;80;20476;-87
2021/11/25 08:32:32;;;;;;;;;;;;;;;5.34;85.04;99922.13;1741836;81;20158;-84
2021/11/25 08:34:58;;;;;;;;;;;;;;;5.45;84.42;99919.10;1762647;80;21140;-83
2021/11/25 08:37:23;;;;;;;;;;;;;;;5.35;83.76;99919.88;1760712;80;20129;-83
2021/11/25 08:39:49;;;;;;;;;;;;;;;5.48;84.12;99920.16;1726301;81;20118;-82
2021/11/25 08:42:15;;;;;;;;;;;;;;;5.53;84.25;99910.11;1725632;82;20612;-84
2021/11/25 08:44:40;;;;;;;;;;;;;;;5.43;83.51;99906.62;1730933;81;20124;-82
2021/11/25 08:47:08;;;;;;;;;;;;;;;5.49;83.77;99904.80;1731189;81;21188;-83
2021/11/25 08:49:33;;;;;;;;;;;;;;;5.55;83.95;99895.12;1732928;82;20300;-84
2021/11/25 08:51:59;;;;;;;;;;;;;;;5.58;83.53;99895.68;1735672;81;20146;-84
2021/11/25 08:54:25;;;;;;;;;;;;;;;5.61;83.42;99893.29;1737037;82;20134;-82
2021/11/25 08:56:52;;;;;;;;;;;;;;;5.64;83.38;99890.41;1733435;82;20808;-84
2021/11/25 08:59:18;;;;;;;;;;;;;;;5.68;82.98;99885.23;1735688;82;21896;-85
2021/11/25 09:01:44;;;;;;;;;;;;;;;5.63;82.91;99876.95;1737706;82;20123;-86
2021/11/25 09:04:09;;;;;;;;;;;;;;;5.74;82.91;99882.09;1732398;82;20165;-85
2021/11/25 09:06:35;;;;;;;;;;;;;;;5.71;82.30;99878.91;1736400;82;20645;-85
2021/11/25 09:09:02;;;;;;;;;;;;;;;5.72;82.18;99872.23;1730133;82;20202;-85
2021/11/25 09:11:27;;;;;;;;;;;;;;;5.82;82.11;99872.75;1734922;82;21070;-85
2021/11/25 09:13:53;;;;;;;;;;;;;;;5.82;81.61;99870.13;1737387;81;20120;-86
2021/11/25 09:16:18;;;;;;;;;;;;;;;5.69;82.58;99865.95;1756017;80;20158;-87
2021/11/25 09:18:44;;;;;;;;;;;;;;;5.66;82.53;99860.97;1751696;80;20557;-85
2021/11/25 09:21:11;;;;;;;;;;;;;;;5.69;82.71;99844.98;1750789;80;20268;-83
2021/11/25 09:23:36;;;;;;;;;;;;;;;5.64;82.24;99843.26;1760322;79;21946;-83
2021/11/25 09:26:02;;;;;;;;;;;;;;;5.68;82.37;99831.53;1761941;79;20146;-82
2021/11/25 09:28:28;;;;;;;;;;;;;;;5.78;82.62;99833.36;1771171;79;20155;-83
2021/11/25 09:30:53;;;;;;;;;;;;;;;5.72;82.12;99829.00;1770355;80;20120;-83
2021/11/25 09:33:19;;;;;;;;;;;;;;;5.69;81.97;99820.59;1768382;80;20130;-84
2021/11/25 09:35:45;;;;;;;;;;;;;;;5.63;81.89;99815.88;1763513;80;21081;-85
2021/11/25 09:38:11;;;;;;;;;;;;;;;5.67;82.01;99811.55;1765014;79;20186;-85
2021/11/25 09:40:37;;;;;;;;;;;;;;;5.66;81.66;99808.58;1769393;79;20300;-85
2021/11/25 09:43:08;;;;;;;;;;;;;;;5.70;81.71;99793.41;1767098;80;20644;-84
2021/11/25 09:45:36;;;;;;;;;;;;;;;5.81;81.80;99795.09;1762488;79;20184;-79
2021/11/25 09:48:07;;;;;;;;;;;;;;;5.78;80.76;99790.13;1768456;79;21161;-83
2021/11/25 09:50:36;;;;;;;;;;;;;;;5.79;81.35;99787.37;1767497;80;20368;-82
2021/11/25 09:53:04;;;;;;;;;;;;;;;5.84;81.24;99778.65;1766758;79;20172;-82
2021/11/25 09:55:30;;;;;;;;;;;;;;;5.94;81.04;99776.03;1763512;79;20236;-83
2021/11/25 09:57:55;;;;;;;;;;;;;;;6.03;81.05;99768.70;1761658;80;20196;-82
2021/11/25 10:00:22;;;;;;;;;;;;;;;6.08;79.97;99764.36;1771094;80;21128;-82
2021/11/25 10:02:48;;;;;;;;;;;;;;;6.14;80.27;99759.88;1759871;79;20552;-83
2021/11/25 10:05:14;;;;;;;;;;;;;;;6.22;79.54;99749.53;1761315;79;20118;-83
2021/11/25 10:07:41;;;;;;;;;;;;;;;6.19;79.83;99743.25;1759637;80;20133;-87
2021/11/25 10:10:29;;;;;;;;;;;;;;;6.21;79.73;99741.80;1769235;80;20178;-84
2021/11/25 10:13:02;;;;;;;;;;;;;;;6.21;79.36;99728.69;1767794;80;21138;-83
2021/11/25 10:15:30;;;;;;;;;;;;;;;6.22;79.09;99723.80;1744073;80;20214;-87
2021/11/25 10:17:59;;;;;;;;;;;;;;;6.29;79.63;99724.88;1710991;83;20144;-86
2021/11/25 10:20:30;;;;;;;;;;;;;;;6.32;79.32;99720.67;1750303;80;20154;-85
2021/11/25 10:23:06;;;;;;;;;;;;;;;6.35;79.42;99711.70;1703190;82;20402;-86
2021/11/25 10:25:52;;;;;;;;;;;;;;;6.36;79.07;99703.70;1696246;82;41651;-85
2021/11/25 10:28:36;;;;;;;;;;;;;;;6.42;78.88;99700.52;1715338;82;20172;-85
2021/11/25 10:31:20;;;;;;;;;;;;;;;6.43;78.64;99704.80;1728153;82;20513;-84
2021/11/25 10:33:51;;;;;;;;;;;;;;;6.37;78.58;99696.19;1725937;81;20219;-85
2021/11/25 10:36:33;;;;;;;;;;;;;;;6.46;78.85;99686.17;1725071;82;20162;-86
2021/11/25 10:39:25;;;;;;;;;;;;;;;6.43;78.97;99681.20;1705594;83;20407;-85
2021/11/25 10:41:41;;;;;;;;;;;;;;;6.38;78.72;99678.16;1701573;83;20538;-88
2021/11/25 10:44:10;;;;;;;;;;;;;;;6.43;78.36;99672.48;1745477;81;20261;-88
2021/11/25 10:46:40;;;;;;;;;;;;;;;6.40;78.55;99665.75;1720004;81;20698;-86
2021/11/25 10:49:06;;;;;;;;;;;;;;;6.42;78.79;99667.73;1720602;81;20254;-87
2021/11/25 10:51:33;;;;;;;;;;;;;;;6.52;77.99;99667.70;1712318;83;21092;-86
2021/11/25 10:54:13;;;;;;;;;;;;;;;6.65;78.02;99658.23;1713744;83;20515;-86
2021/11/25 10:56:47;;;;;;;;;;;;;;;6.70;77.70;99656.00;1744550;81;20895;-86
2021/11/25 10:59:15;;;;;;;;;;;;;;;6.72;77.18;99650.11;1706650;81;20128;-87
2021/11/25 11:01:43;;;;;;;;;;;;;;;6.85;75.77;99647.64;1747452;81;20345;-86
2021/11/25 11:04:09;;;;;;;;;;;;;;;6.87;74.96;99640.45;1747038;80;21013;-85
2021/11/25 11:06:36;;;;;;;;;;;;;;;6.87;75.86;99640.45;1749281;81;20612;-86
2021/11/25 11:09:03;;;;;;;;;;;;;;;6.91;75.98;99632.63;1742392;81;20657;-85
2021/11/25 11:11:32;;;;;;;;;;;;;;;6.93;75.70;99632.84;1722958;82;20206;-87
2021/11/25 11:14:15;;;;;;;;;;;;;;;6.98;75.50;99628.47;1726301;82;20156;-88
2021/11/25 11:16:46;;;;;;;;;;;;;;;6.99;75.35;99620.91;1728044;82;20144;-86
2021/11/25 11:19:15;;;;;;;;;;;;;;;6.98;75.26;99615.34;1707202;82;20162;-87
2021/11/25 11:21:44;;;;;;;;;;;;;;;6.97;75.53;99614.98;1725033;82;20150;-87
2021/11/25 11:24:18;;;;;;;;;;;;;;;7.26;75.07;99612.20;1726802;81;20132;-85
2021/11/25 11:26:52;;;;;;;;;;;;;;;7.37;74.20;99617.73;1707439;83;20171;-87
2021/11/25 11:29:19;;;;;;;;;;;;;;;7.34;73.27;99616.72;1710904;82;22041;-83
2021/11/25 11:31:45;;;;;;;;;;;;;;;7.38;72.94;99606.27;1726034;81;20201;-88
2021/11/25 11:34:11;;;;;;;;;;;;;;;7.44;72.93;99609.61;1729299;82;20178;-86
2021/11/25 11:36:39;;;;;;;;;;;;;;;7.42;72.05;99604.97;1710284;83;20611;-89
2021/11/25 11:39:05;;;;;;;;;;;;;;;7.47;72.95;99604.52;1710781;83;20545;-89
2021/11/25 11:41:33;;;;;;;;;;;;;;;7.50;72.82;99603.75;1742765;81;21142;-87
2021/11/25 11:44:01;;;;;;;;;;;;;;;7.57;72.37;99600.03;1707523;82;20216;-86
2021/11/25 11:46:28;;;;;;;;;;;;;;;7.60;72.02;99592.31;1687347;83;20211;-84
2021/11/25 11:48:54;;;;;;;;;;;;;;;7.65;72.41;99585.64;1708783;82;20247;-86
2021/11/25 11:51:21;;;;;;;;;;;;;;;7.71;71.99;99586.84;1712028;81;20249;-85
2021/11/25 11:53:50;;;;;;;;;;;;;;;7.73;71.36;99583.57;1710902;82;21187;-85
2021/11/25 11:56:16;;;;;;;;;;;;;;;7.87;71.77;99573.82;1715051;81;20151;-84
2021/11/25 11:58:50;;;;;;;;;;;;;;;7.88;70.76;99565.46;1710126;81;20231;-86
2021/11/25 12:01:19;;;;;;;;;;;;;;;7.84;70.67;99563.61;1714541;81;20653;-84
2021/11/25 12:03:47;;;;;;;;;;;;;;;7.90;70.97;99557.73;1714756;81;20188;-84
2021/11/25 12:06:30;;;;;;;;;;;;;;;7.40;69.60;99563.59;1713011;81;21170;-85
2021/11/25 12:08:56;;;;;;;;;;;;;;;7.47;70.91;99558.08;1712772;81;20545;-84
2021/11/25 12:11:21;;;;;;;;;;;;;;;7.46;70.93;99549.85;1718887;81;20129;-85
2021/11/25 12:14:01;;;;;;;;;;;;;;;7.46;71.46;99541.97;1714266;81;20130;-85
2021/11/25 12:16:28;;;;;;;;;;;;;;;7.70;70.79;99541.83;1720446;81;20605;-86
2021/11/25 12:18:57;;;;;;;;;;;;;;;7.74;70.52;99541.87;1712154;82;20525;-85
2021/11/25 12:21:40;;;;;;;;;;;;;;;7.85;70.56;99533.73;1725654;82;20880;-83
2021/11/25 12:24:22;;;;;;;;;;;;;;;7.48;70.35;99534.75;1729024;81;20226;-87
2021/11/25 12:27:19;;;;;;;;;;;;;;;7.74;70.99;99528.73;1730444;81;20175;-83
2021/11/25 12:29:50;;;;;;;;;;;;;;;7.75;70.68;99525.09;1732706;81;20211;-84
2021/11/25 12:35:20;;;;;;;;;;;;;;;7.67;70.78;99511.91;1729488;81;20228;-83
2021/11/25 12:37:47;;;;;;;;;;;;;;;7.75;70.99;99506.70;1726617;81;20192;-83
2021/11/25 12:40:19;;;;;;;;;;;;;;;7.89;71.83;99498.74;1730573;81;20614;-82
2021/11/25 12:42:54;;;;;;;;;;;;;;;7.88;70.64;99497.93;1744269;81;20487;-85
2021/11/25 12:45:38;;;;;;;;;;;;;;;7.77;71.50;99494.25;1731768;80;21139;-87
2021/11/25 12:48:26;;;;;;;;;;;;;;;7.85;70.89;99498.73;1705066;83;20239;-84
2021/11/25 12:51:04;;;;;;;;;;;;;;;7.84;71.11;99484.75;1703665;83;20264;-87
2021/11/25 12:53:50;;;;;;;;;;;;;;;7.94;70.82;99482.03;1744336;81;20159;-85
2021/11/25 12:56:19;;;;;;;;;;;;;;;8.04;70.26;99477.47;1702684;83;20586;-83
2021/11/25 12:58:53;;;;;;;;;;;;;;;8.04;69.99;99481.91;1710234;82;21723;-85